Time;durP1;ratioP1;P1;durP2;ratioP2;P2;SDS_P1;SDS_P2;PMS_P1;PMS_P2;Temp;Humidity;BMP_temperature;BMP_pressure;BME280_temperature;BME280_humidity;BME280_pressure;Samples;Min_cycle;Max_cycle;Signal;HPM_P1;HPM_P2
2023/12/15 00:00:18;;;;;;;11.07;3.00;;;;;;;7.30;100.00;102369.72;5017107;28;20464;-77
2023/12/15 00:02:46;;;;;;;12.05;2.80;;;;;;;7.29;100.00;102378.72;5017038;28;20036;-77
2023/12/15 00:05:12;;;;;;;16.00;2.90;;;;;;;7.29;100.00;102372.53;5000364;28;20091;-77
2023/12/15 00:07:38;;;;;;;10.32;2.92;;;;;;;7.28;100.00;102371.66;5000168;28;20037;-77
2023/12/15 00:10:09;;;;;;;17.85;2.95;;;;;;;7.28;100.00;102374.34;5000086;28;20041;-77
2023/12/15 00:12:35;;;;;;;11.60;2.78;;;;;;;7.26;100.00;102381.63;5032635;28;20049;-76
2023/12/15 00:15:00;;;;;;;11.63;2.70;;;;;;;7.22;100.00;102378.34;5016893;28;20118;-77
2023/12/15 00:17:26;;;;;;;10.38;2.75;;;;;;;7.18;100.00;102381.34;4999572;28;20388;-77
2023/12/15 00:19:52;;;;;;;7.53;2.42;;;;;;;7.15;100.00;102392.28;5000467;28;20455;-77
2023/12/15 00:22:18;;;;;;;11.98;2.67;;;;;;;7.13;100.00;102395.06;4999659;28;20029;-77
2023/12/15 00:24:43;;;;;;;12.65;3.22;;;;;;;7.14;100.00;102402.09;4999783;28;20029;-76
2023/12/15 00:27:09;;;;;;;11.85;2.90;;;;;;;7.14;100.00;102402.09;4999567;28;20030;-77
2023/12/15 00:29:35;;;;;;;9.55;2.83;;;;;;;7.13;100.00;102396.88;4999878;28;20483;-77
2023/12/15 00:32:02;;;;;;;12.52;2.60;;;;;;;7.12;100.00;102397.81;5015731;28;20081;-77
2023/12/15 00:34:28;;;;;;;11.05;3.53;;;;;;;7.12;100.00;102392.47;5000216;28;20048;-77
2023/12/15 00:36:54;;;;;;;15.60;3.13;;;;;;;7.10;100.00;102389.94;4999588;28;20034;-77
2023/12/15 00:39:23;;;;;;;8.45;2.83;;;;;;;7.11;100.00;102390.78;5015778;28;20427;-77
2023/12/15 00:41:54;;;;;;;17.30;3.13;;;;;;;7.11;100.00;102391.63;5016257;28;20415;-77
2023/12/15 00:44:20;;;;;;;15.15;3.00;;;;;;;7.13;100.00;102399.56;5015763;28;20048;-77
2023/12/15 00:46:45;;;;;;;8.43;2.20;;;;;;;7.14;100.00;102396.75;4999796;28;20033;-77
2023/12/15 00:49:14;;;;;;;9.70;2.35;;;;;;;7.14;100.00;102393.22;5000582;28;20037;-77
2023/12/15 00:51:41;;;;;;;11.80;3.67;;;;;;;7.13;100.00;102388.84;5016220;28;20546;-77
2023/12/15 00:54:07;;;;;;;8.73;2.67;;;;;;;7.08;100.00;102367.78;4998542;28;20033;-78
2023/12/15 00:56:33;;;;;;;9.38;2.53;;;;;;;7.08;100.00;102378.50;5015635;28;20044;-78
2023/12/15 00:59:02;;;;;;;12.32;2.70;;;;;;;7.10;100.00;102384.59;4999656;28;20029;-76
2023/12/15 01:01:27;;;;;;;11.52;3.25;;;;;;;7.13;100.00;102396.88;5031997;28;20111;-79
2023/12/15 01:03:53;;;;;;;13.73;2.80;;;;;;;7.14;100.00;102403.94;5015365;28;20533;-78
2023/12/15 01:06:20;;;;;;;15.50;2.97;;;;;;;7.15;100.00;102403.81;5015928;28;20087;-79
2023/12/15 01:08:45;;;;;;;12.73;2.50;;;;;;;7.17;100.00;102398.34;5015573;28;20033;-78
2023/12/15 01:11:11;;;;;;;12.95;2.50;;;;;;;7.17;100.00;102399.22;4999220;28;20120;-79
2023/12/15 01:13:40;;;;;;;12.85;2.60;;;;;;;7.15;100.00;102405.66;4998686;28;20069;-78
2023/12/15 01:16:06;;;;;;;14.13;3.05;;;;;;;7.12;100.00;102387.13;4999284;28;20042;-79
2023/12/15 01:18:32;;;;;;;9.43;2.53;;;;;;;7.09;100.00;102377.50;4999107;28;20047;-78
2023/12/15 01:20:58;;;;;;;15.82;3.67;;;;;;;7.10;100.00;102389.94;4999335;28;20042;-78
2023/12/15 01:23:26;;;;;;;14.30;3.20;;;;;;;7.14;100.00;102390.56;4999845;28;20036;-78
2023/12/15 01:25:52;;;;;;;11.68;2.92;;;;;;;7.12;100.00;102389.81;5015439;28;20037;-78
2023/12/15 01:28:17;;;;;;;10.23;3.00;;;;;;;7.15;100.00;102393.13;5000386;28;20424;-78
2023/12/15 01:30:43;;;;;;;12.40;3.00;;;;;;;7.13;100.00;102379.00;5003019;28;20029;-78
2023/12/15 01:33:09;;;;;;;11.85;2.80;;;;;;;7.15;100.00;102373.56;5002284;28;20068;-79
2023/12/15 01:35:37;;;;;;;11.88;3.38;;;;;;;7.15;100.00;102376.22;5002791;28;20038;-78
2023/12/15 01:38:02;;;;;;;15.05;4.70;;;;;;;7.19;100.00;102375.88;5035896;28;20041;-78
2023/12/15 01:40:28;;;;;;;16.90;3.70;;;;;;;7.24;100.00;102371.03;5002705;28;20029;-78
2023/12/15 01:43:00;;;;;;;14.82;3.75;;;;;;;7.29;100.00;102367.16;5003207;28;20025;-78
2023/12/15 01:45:26;;;;;;;11.20;3.42;;;;;;;7.36;100.00;102371.94;5019626;28;20139;-78
2023/12/15 01:47:57;;;;;;;11.00;3.38;;;;;;;7.36;100.00;102361.25;5019188;28;20060;-79
2023/12/15 01:50:23;;;;;;;13.90;2.97;;;;;;;7.36;100.00;102342.50;5003081;28;20033;-78
2023/12/15 01:52:49;;;;;;;14.45;3.55;;;;;;;7.37;100.00;102343.34;5002461;28;20448;-79
2023/12/15 01:55:15;;;;;;;11.70;3.42;;;;;;;7.35;100.00;102364.88;5003101;28;20038;-78
2023/12/15 01:57:42;;;;;;;13.88;3.13;;;;;;;7.32;100.00;102359.75;5002759;28;20469;-78
2023/12/15 02:00:08;;;;;;;9.32;3.15;;;;;;;7.30;100.00;102374.22;5018986;28;20460;-78
2023/12/15 02:02:34;;;;;;;14.77;2.90;;;;;;;7.29;100.00;102368.00;5002341;28;20037;-78
2023/12/15 02:05:02;;;;;;;12.77;2.30;;;;;;;7.26;100.00;102374.44;5002498;28;20606;-79
2023/12/15 02:07:30;;;;;;;9.45;2.42;;;;;;;7.22;100.00;102380.13;5003555;28;20029;-78
2023/12/15 02:09:58;;;;;;;10.20;2.63;;;;;;;7.22;100.00;102389.03;5002865;28;20040;-79
2023/12/15 02:12:23;;;;;;;9.43;2.42;;;;;;;7.18;100.00;102394.72;5002306;28;20491;-78
2023/12/15 02:14:52;;;;;;;15.10;2.70;;;;;;;7.18;100.00;102397.41;5002745;28;20116;-78
2023/12/15 02:17:18;;;;;;;16.70;2.55;;;;;;;7.15;100.00;102397.63;5002045;28;20539;-78
2023/12/15 02:19:43;;;;;;;15.23;3.47;;;;;;;7.13;100.00;102395.06;5002527;28;20046;-78
2023/12/15 02:22:09;;;;;;;17.13;2.67;;;;;;;7.14;100.00;102391.41;5002381;28;20033;-78
2023/12/15 02:24:35;;;;;;;11.50;2.30;;;;;;;7.15;100.00;102384.25;5002286;28;20061;-78
2023/12/15 02:27:03;;;;;;;7.78;2.58;;;;;;;7.15;100.00;102387.78;5018780;28;20118;-78
2023/12/15 02:29:31;;;;;;;13.15;2.67;;;;;;;7.17;100.00;102379.63;5002061;28;20128;-79
2023/12/15 02:31:56;;;;;;;14.13;3.15;;;;;;;7.20;100.00;102384.78;5018422;28;20071;-78
2023/12/15 02:34:35;;;;;;;8.55;2.40;;;;;;;7.21;100.00;102386.47;5001426;28;20033;-80
2023/12/15 02:37:00;;;;;;;7.47;2.10;;;;;;;7.23;100.00;102382.72;5002830;28;20040;-80
2023/12/15 02:39:26;;;;;;;11.48;2.63;;;;;;;7.21;100.00;102392.66;5001601;28;20034;-80
2023/12/15 02:41:52;;;;;;;11.20;2.83;;;;;;;7.22;100.00;102390.84;5018494;28;20030;-78
2023/12/15 02:44:17;;;;;;;11.40;3.17;;;;;;;7.24;100.00;102403.13;5018367;28;20056;-78
2023/12/15 02:46:43;;;;;;;9.85;2.33;;;;;;;7.25;100.00;102399.50;5001742;28;20037;-78
2023/12/15 02:49:12;;;;;;;11.25;2.60;;;;;;;7.25;100.00;102399.50;5002497;28;20140;-78
2023/12/15 02:51:37;;;;;;;13.60;3.72;;;;;;;7.26;100.00;102405.72;5017346;28;20120;-78
2023/12/15 02:54:03;;;;;;;8.18;2.33;;;;;;;7.26;100.00;102395.00;5001743;28;20034;-78
2023/12/15 02:56:29;;;;;;;11.88;3.28;;;;;;;7.24;100.00;102387.06;5001593;28;20052;-78
2023/12/15 02:58:55;;;;;;;8.43;2.25;;;;;;;7.27;100.00;102391.34;5001818;28;20041;-78
2023/12/15 03:01:24;;;;;;;9.32;2.47;;;;;;;7.27;100.00;102388.66;5001769;28;20079;-78
2023/12/15 03:03:51;;;;;;;7.63;2.42;;;;;;;7.26;100.00;102400.34;5018069;28;20132;-78
2023/12/15 03:06:16;;;;;;;8.95;2.80;;;;;;;7.22;100.00;102388.16;5001442;28;20033;-78
2023/12/15 03:08:50;;;;;;;10.50;2.15;;;;;;;7.21;100.00;102397.16;5017954;28;20052;-78
2023/12/15 03:11:18;;;;;;;16.42;2.42;;;;;;;7.19;100.00;102391.06;5017846;28;20080;-78
2023/12/15 03:13:44;;;;;;;11.88;2.40;;;;;;;7.16;100.00;102389.47;5017725;28;20025;-78
2023/12/15 03:16:11;;;;;;;15.20;2.90;;;;;;;7.18;100.00;102384.88;5017263;28;20468;-78
2023/12/15 03:18:39;;;;;;;11.77;2.55;;;;;;;7.23;100.00;102385.38;5033573;28;20025;-78
2023/12/15 03:21:08;;;;;;;12.07;2.28;;;;;;;7.24;100.00;102403.13;5017365;28;20476;-78
2023/12/15 03:23:34;;;;;;;9.40;2.55;;;;;;;7.21;100.00;102390.00;5001582;28;20037;-78
2023/12/15 03:25:59;;;;;;;17.70;3.00;;;;;;;7.16;100.00;102389.47;5000663;28;20435;-78
2023/12/15 03:28:28;;;;;;;17.65;3.15;;;;;;;7.07;100.00;102390.16;5001254;28;20052;-78
2023/12/15 03:30:54;;;;;;;13.07;2.30;;;;;;;7.08;100.00;102415.09;5001127;28;20029;-78
2023/12/15 03:33:23;;;;;;;15.73;2.80;;;;;;;7.09;100.00;102406.94;5000712;28;20053;-77
2023/12/15 03:35:49;;;;;;;11.63;2.70;;;;;;;7.14;100.00;102407.44;5001101;28;20480;-78
2023/12/15 03:38:14;;;;;;;12.52;3.20;;;;;;;7.16;100.00;102404.66;5000526;28;20099;-78
2023/12/15 03:40:40;;;;;;;11.85;3.15;;;;;;;7.18;100.00;102408.94;5001000;28;20036;-78
2023/12/15 03:43:06;;;;;;;12.60;2.60;;;;;;;7.21;100.00;102414.06;5000322;28;20052;-78
2023/12/15 03:45:32;;;;;;;15.45;2.42;;;;;;;7.20;100.00;102409.69;5016280;28;20112;-77
2023/12/15 03:47:58;;;;;;;13.55;3.33;;;;;;;7.24;100.00;102412.97;5000805;28;20131;-78
2023/12/15 03:50:29;;;;;;;10.75;2.95;;;;;;;7.23;100.00;102401.44;5000717;28;20033;-78
2023/12/15 03:52:57;;;;;;;13.60;2.25;;;;;;;7.20;100.00;102398.16;5016571;28;20034;-78
2023/12/15 03:55:25;;;;;;;16.75;3.28;;;;;;;7.14;100.00;102399.44;5001239;28;20038;-78
2023/12/15 03:57:55;;;;;;;8.85;2.05;;;;;;;7.10;100.00;102397.97;5000790;28;20063;-78
2023/12/15 04:00:21;;;;;;;12.20;3.00;;;;;;;7.04;100.00;102399.28;5016445;28;20104;-80
2023/12/15 04:02:47;;;;;;;17.55;3.88;;;;;;;7.00;100.00;102405.78;5000169;28;20140;-78
2023/12/15 04:05:15;;;;;;;8.82;2.45;;;;;;;6.98;100.00;102396.19;5016777;28;20030;-78
2023/12/15 04:07:42;;;;;;;12.02;2.63;;;;;;;6.97;100.00;102407.84;5000825;28;20395;-78
2023/12/15 04:10:09;;;;;;;11.32;2.78;;;;;;;6.92;100.00;102402.81;5000437;28;20224;-78
2023/12/15 04:12:40;;;;;;;15.52;2.60;;;;;;;6.85;100.00;102412.25;5017564;28;20029;-78
2023/12/15 04:15:09;;;;;;;13.02;2.92;;;;;;;6.76;100.00;102421.78;5017010;28;20041;-78
2023/12/15 04:17:35;;;;;;;12.00;3.10;;;;;;;6.70;100.00;102430.28;5015692;28;20053;-78
2023/12/15 04:20:03;;;;;;;19.55;3.08;;;;;;;6.67;100.00;102448.31;5000660;28;20033;-78
2023/12/15 04:22:32;;;;;;;8.32;2.75;;;;;;;6.61;100.00;102446.94;5000365;28;20061;-79
2023/12/15 04:24:57;;;;;;;21.10;2.83;;;;;;;6.45;100.00;102452.50;5000210;28;20030;-78
2023/12/15 04:27:24;;;;;;;13.10;3.08;;;;;;;6.28;100.00;102440.34;5015720;28;20419;-78
2023/12/15 04:29:52;;;;;;;15.65;2.78;;;;;;;6.07;100.00;102426.66;5016517;28;20045;-78
2023/12/15 04:32:18;;;;;;;12.63;2.70;;;;;;;5.91;100.00;102432.16;4994654;28;20029;-78
2023/12/15 04:34:44;;;;;;;12.73;2.88;;;;;;;5.85;100.00;102448.59;4983539;28;20037;-78
2023/12/15 04:37:12;;;;;;;11.85;2.50;;;;;;;5.73;100.00;102457.41;5015803;28;20057;-78
2023/12/15 04:43:14;;;;;;;18.35;2.55;;;;;;;5.50;100.00;102478.50;5025043;28;20076;-78
2023/12/15 04:45:39;;;;;;;10.48;3.05;;;;;;;5.42;100.00;102474.59;4999759;28;20495;-78
2023/12/15 04:48:06;;;;;;;19.55;3.13;;;;;;;5.36;100.00;102481.19;5032221;28;20037;-80
2023/12/15 04:50:35;;;;;;;11.45;2.80;;;;;;;5.29;100.00;102488.75;5032290;28;20059;-78
2023/12/15 04:53:04;;;;;;;12.73;3.03;;;;;;;5.21;100.00;102493.72;5015780;28;20516;-79
2023/12/15 04:55:29;;;;;;;9.93;3.08;;;;;;;5.12;100.00;102491.63;4999975;28;20033;-78
2023/12/15 04:57:56;;;;;;;10.32;2.30;;;;;;;5.07;100.00;102489.25;4999305;28;20104;-77
2023/12/15 05:00:25;;;;;;;18.15;3.25;;;;;;;5.02;100.00;102496.69;4999823;28;20033;-78
2023/12/15 05:02:50;;;;;;;12.13;3.33;;;;;;;5.10;100.00;102496.19;4998440;28;20030;-77
2023/12/15 05:05:16;;;;;;;19.77;3.28;;;;;;;5.11;100.00;102495.25;4999231;28;20038;-77
2023/12/15 05:07:42;;;;;;;11.75;3.40;;;;;;;5.14;100.00;102500.38;4999726;28;20029;-77
2023/12/15 05:10:08;;;;;;;17.27;3.03;;;;;;;5.11;100.00;102503.25;5015826;28;20034;-77
2023/12/15 05:12:35;;;;;;;10.70;3.00;;;;;;;5.04;100.00;102504.59;4999420;28;20038;-77
2023/12/15 05:15:04;;;;;;;11.98;2.45;;;;;;;4.93;100.00;102499.94;4999292;28;20037;-78
2023/12/15 05:17:33;;;;;;;14.65;2.80;;;;;;;4.71;100.00;102503.09;5015748;28;20037;-78
2023/12/15 05:20:01;;;;;;;16.60;3.03;;;;;;;4.57;100.00;102503.06;4999106;28;20040;-78
2023/12/15 05:22:27;;;;;;;15.45;2.50;;;;;;;4.39;100.00;102497.94;4999958;28;20087;-79
2023/12/15 05:24:53;;;;;;;8.82;2.15;;;;;;;4.26;100.00;102504.06;5015570;28;20045;-79
2023/12/15 05:27:18;;;;;;;17.30;2.40;;;;;;;4.22;100.00;102508.72;4998936;28;20029;-78
2023/12/15 05:29:45;;;;;;;11.65;2.20;;;;;;;4.23;100.00;102518.41;4999365;28;20033;-78
2023/12/15 05:32:14;;;;;;;14.65;2.70;;;;;;;4.24;100.00;102512.16;4998650;28;20063;-77
2023/12/15 05:34:43;;;;;;;11.13;2.05;;;;;;;4.25;100.00;102521.00;4999589;28;20128;-78
2023/12/15 05:37:12;;;;;;;10.23;2.63;;;;;;;4.37;100.00;102515.81;5015255;28;20120;-77
2023/12/15 05:39:42;;;;;;;18.73;3.72;;;;;;;4.44;100.00;102512.75;5015889;28;20037;-77
2023/12/15 05:42:10;;;;;;;15.77;3.13;;;;;;;4.53;100.00;102515.72;5015612;28;20108;-77
2023/12/15 05:44:40;;;;;;;12.52;2.47;;;;;;;4.61;100.00;102524.09;4999157;28;20044;-78
2023/12/15 05:47:12;;;;;;;15.10;3.20;;;;;;;4.62;100.00;102523.16;4999068;28;20391;-77
2023/12/15 05:49:40;;;;;;;11.40;2.85;;;;;;;4.60;100.00;102513.53;5015567;28;20087;-79
2023/12/15 05:52:08;;;;;;;15.13;2.70;;;;;;;4.62;100.00;102516.97;4998888;28;20040;-78
2023/12/15 05:54:34;;;;;;;23.00;3.80;;;;;;;4.65;100.00;102516.78;4998929;28;20132;-77
2023/12/15 05:57:00;;;;;;;20.27;3.85;;;;;;;4.73;100.00;102519.81;5015293;28;20033;-78
2023/12/15 05:59:27;;;;;;;16.85;3.78;;;;;;;4.72;100.00;102520.78;5031092;28;20038;-77
2023/12/15 06:01:55;;;;;;;16.65;2.67;;;;;;;4.69;100.00;102520.13;4998799;28;20033;-78
2023/12/15 06:04:24;;;;;;;13.38;3.13;;;;;;;4.62;100.00;102530.28;4998915;28;20044;-78
2023/12/15 06:06:54;;;;;;;14.52;2.70;;;;;;;4.59;100.00;102544.66;5031278;28;20029;-78
2023/12/15 06:09:20;;;;;;;10.60;2.83;;;;;;;4.62;100.00;102551.59;4983031;28;20129;-77
2023/12/15 06:11:49;;;;;;;17.08;2.58;;;;;;;4.63;100.00;102546.19;4999216;28;20120;-78
2023/12/15 06:14:18;;;;;;;19.58;2.97;;;;;;;4.63;100.00;102539.97;5016224;28;20025;-78
2023/12/15 06:16:44;;;;;;;12.20;2.80;;;;;;;4.61;100.00;102544.56;5018750;28;20084;-77
2023/12/15 06:19:09;;;;;;;10.90;2.65;;;;;;;4.63;100.00;102551.53;5019008;28;20444;-78
2023/12/15 06:21:35;;;;;;;12.88;2.63;;;;;;;4.71;100.00;102551.06;5002373;28;20029;-77
2023/12/15 06:24:10;;;;;;;12.25;2.85;;;;;;;4.87;100.00;102548.31;5002293;28;20086;-78
2023/12/15 06:26:39;;;;;;;14.35;2.90;;;;;;;5.01;100.00;102555.44;4998800;28;20035;-78
2023/12/15 06:29:05;;;;;;;14.65;2.53;;;;;;;5.11;100.00;102559.25;5018092;28;20067;-78
2023/12/15 06:31:30;;;;;;;13.18;2.58;;;;;;;5.19;100.00;102566.78;5002000;28;20045;-78
2023/12/15 06:33:59;;;;;;;12.95;2.20;;;;;;;5.22;100.00;102567.44;5018032;28;20037;-78
2023/12/15 06:36:27;;;;;;;15.10;2.58;;;;;;;5.31;100.00;102559.78;5002316;28;20483;-79
2023/12/15 06:38:55;;;;;;;12.00;1.92;;;;;;;5.39;100.00;102562.81;5002690;28;20030;-78
2023/12/15 06:41:21;;;;;;;10.73;2.10;;;;;;;5.40;100.00;102560.06;5002126;28;20041;-77
2023/12/15 06:43:49;;;;;;;16.60;2.97;;;;;;;5.28;100.00;102569.69;5001754;28;20044;-78
2023/12/15 06:46:19;;;;;;;17.23;2.67;;;;;;;5.13;100.00;102567.13;5034814;28;20043;-78
2023/12/15 06:48:44;;;;;;;10.75;2.10;;;;;;;5.12;100.00;102576.94;5018326;28;20037;-79
2023/12/15 06:51:16;;;;;;;15.93;2.55;;;;;;;5.30;100.00;102585.63;5017795;28;20029;-77
2023/12/15 06:53:44;;;;;;;11.93;2.45;;;;;;;5.43;100.00;102572.38;5001274;28;20033;-78
2023/12/15 06:56:12;;;;;;;17.70;2.90;;;;;;;5.45;100.00;102565.09;5001484;28;20122;-78
2023/12/15 06:58:38;;;;;;;12.70;2.72;;;;;;;5.44;100.00;102569.59;5018212;28;20094;-78
2023/12/15 07:01:05;;;;;;;13.48;2.70;;;;;;;5.54;100.00;102580.53;5017768;28;20041;-78
2023/12/15 07:03:31;;;;;;;10.48;2.75;;;;;;;5.64;100.00;102570.97;5001286;28;20051;-78
2023/12/15 07:05:57;;;;;;;15.75;3.50;;;;;;;5.69;100.00;102566.22;5001506;28;20041;-78
2023/12/15 07:08:28;;;;;;;11.07;2.50;;;;;;;5.80;100.00;102572.66;5017670;28;20021;-78
2023/12/15 07:10:59;;;;;;;14.30;2.83;;;;;;;5.87;100.00;102557.94;5001522;28;20025;-79
2023/12/15 07:13:25;;;;;;;16.00;2.80;;;;;;;5.99;100.00;102565.19;5017641;28;20041;-79
2023/12/15 07:16:15;;;;;;;17.40;3.33;;;;;;;6.07;100.00;102562.84;5001235;28;20033;-78
2023/12/15 07:18:41;;;;;;;33.45;7.78;;;;;;;6.11;100.00;102558.16;5033525;28;20034;-78
2023/12/15 07:21:10;;;;;;;23.27;6.55;;;;;;;6.12;100.00;102563.41;5017713;28;20044;-78
2023/12/15 07:23:38;;;;;;;18.73;6.90;;;;;;;6.15;100.00;102562.34;5001442;28;20043;-78
2023/12/15 07:26:06;;;;;;;50.55;14.88;;;;;;;6.19;100.00;102562.97;4999955;28;20038;-78
2023/12/15 07:28:38;;;;;;;27.77;8.57;;;;;;;6.23;100.00;102564.50;5018287;28;20040;-78
2023/12/15 07:31:03;;;;;;;15.68;3.75;;;;;;;6.27;100.00;102563.31;5000705;28;20392;-79
2023/12/15 07:33:29;;;;;;;13.13;2.60;;;;;;;6.32;100.00;102563.88;5017041;28;20029;-78
2023/12/15 07:35:55;;;;;;;16.73;3.40;;;;;;;6.35;100.00;102569.88;5033524;28;20043;-78
2023/12/15 07:38:20;;;;;;;16.90;3.45;;;;;;;6.40;100.00;102564.19;5000883;28;20041;-79
2023/12/15 07:40:46;;;;;;;9.27;2.50;;;;;;;6.45;100.00;102558.56;5000926;28;20048;-79
2023/12/15 07:43:15;;;;;;;11.63;3.92;;;;;;;6.51;100.00;102568.81;5000815;28;20068;-78
2023/12/15 07:45:41;;;;;;;14.65;3.42;;;;;;;6.56;100.00;102564.88;5000657;28;20036;-79
2023/12/15 07:48:07;;;;;;;19.85;3.92;;;;;;;6.59;100.00;102566.50;5000807;28;20124;-78
2023/12/15 07:50:33;;;;;;;14.05;2.97;;;;;;;6.66;100.00;102572.25;5000556;28;20029;-78
2023/12/15 07:53:03;;;;;;;17.55;3.88;;;;;;;6.69;100.00;102561.34;5001029;28;20085;-78
2023/12/15 07:55:31;;;;;;;13.98;3.30;;;;;;;6.71;100.00;102572.78;5000895;28;20041;-78
2023/12/15 07:57:56;;;;;;;18.73;3.42;;;;;;;6.76;100.00;102576.00;5000561;28;20087;-78
2023/12/15 08:00:22;;;;;;;11.77;3.35;;;;;;;6.80;100.00;102578.38;5000496;28;20037;-78
2023/12/15 08:02:49;;;;;;;19.60;2.72;;;;;;;6.88;100.00;102576.97;5000597;28;20407;-78
2023/12/15 08:05:15;;;;;;;11.85;2.80;;;;;;;6.93;100.00;102586.41;5032621;28;20068;-78
2023/12/15 08:07:44;;;;;;;8.80;2.85;;;;;;;7.01;100.00;102584.03;5032656;28;20072;-78
2023/12/15 08:10:10;;;;;;;13.18;3.28;;;;;;;7.09;100.00;102593.31;5016708;28;20060;-78
2023/12/15 08:12:36;;;;;;;11.05;3.47;;;;;;;7.16;100.00;102594.63;5000363;28;20072;-78
2023/12/15 08:15:05;;;;;;;14.63;2.60;;;;;;;7.19;100.00;102591.72;5000024;28;20037;-78
2023/12/15 08:17:31;;;;;;;16.05;3.72;;;;;;;7.20;100.00;102593.44;5000150;28;20071;-78
2023/12/15 08:19:57;;;;;;;18.45;5.20;;;;;;;7.21;100.00;102608.53;5000279;28;20057;-78
2023/12/15 08:22:25;;;;;;;19.48;2.85;;;;;;;7.20;100.00;102598.78;5016806;28;20025;-78
2023/12/15 08:24:52;;;;;;;13.23;2.03;;;;;;;7.20;100.00;102605.00;5000130;28;20045;-78
2023/12/15 08:27:24;;;;;;;13.27;2.33;;;;;;;7.25;100.00;102608.22;5000102;28;20116;-78
2023/12/15 08:29:57;;;;;;;9.75;2.22;;;;;;;7.31;100.00;102606.06;5016108;28;20037;-78
2023/12/15 08:32:25;;;;;;;14.95;2.80;;;;;;;7.38;100.00;102612.66;5016764;28;20033;-78
2023/12/15 08:34:53;;;;;;;13.55;3.03;;;;;;;7.40;100.00;102616.94;5016511;28;20495;-79
2023/12/15 08:37:22;;;;;;;19.35;4.38;;;;;;;7.43;100.00;102622.06;5015589;28;20029;-78
2023/12/15 08:39:50;;;;;;;13.90;3.78;;;;;;;7.44;100.00;102623.81;5016059;28;20049;-78
2023/12/15 08:42:21;;;;;;;13.48;2.88;;;;;;;7.44;100.00;102621.13;5000937;28;20072;-78
2023/12/15 08:44:47;;;;;;;18.25;3.83;;;;;;;7.47;100.00;102631.59;5016666;28;20684;-78
2023/12/15 08:47:13;;;;;;;11.30;2.85;;;;;;;7.49;100.00;102629.69;4999000;28;20041;-78
2023/12/15 08:49:39;;;;;;;20.40;3.90;;;;;;;7.54;100.00;102640.06;4999793;28;20040;-81
2023/12/15 08:52:05;;;;;;;10.50;3.42;;;;;;;7.55;100.00;102640.91;5016047;28;20049;-78
2023/12/15 08:54:31;;;;;;;14.77;4.35;;;;;;;7.57;100.00;102636.28;5015849;28;20041;-78
2023/12/15 08:56:57;;;;;;;14.05;3.67;;;;;;;7.59;100.00;102639.72;4999870;28;20041;-78
2023/12/15 08:59:28;;;;;;;9.75;3.97;;;;;;;7.65;100.00;102642.81;5015990;28;20057;-79
2023/12/15 09:01:54;;;;;;;11.02;2.83;;;;;;;7.67;100.00;102646.25;5001015;28;20112;-78
2023/12/15 09:04:22;;;;;;;12.73;3.00;;;;;;;7.72;100.00;102637.88;4999477;28;20133;-78
2023/12/15 09:06:48;;;;;;;14.52;3.42;;;;;;;7.76;100.00;102650.06;4999789;28;20037;-78
2023/12/15 09:09:21;;;;;;;11.07;3.80;;;;;;;7.83;100.00;102645.13;5032238;28;20472;-78
2023/12/15 09:11:47;;;;;;;9.32;4.75;;;;;;;7.87;100.00;102655.50;5032140;28;20030;-78
2023/12/15 09:14:15;;;;;;;11.00;4.82;;;;;;;7.93;100.00;102659.56;4999405;28;20427;-78
2023/12/15 09:16:47;;;;;;;14.60;5.72;;;;;;;7.96;100.00;102661.16;5015912;28;20083;-80
2023/12/15 09:19:13;;;;;;;12.35;3.25;;;;;;;8.03;100.00;102662.44;5000082;28;20034;-78
2023/12/15 09:21:39;;;;;;;12.80;3.67;;;;;;;8.08;100.00;102661.13;4999562;28;20045;-78
2023/12/15 09:24:05;;;;;;;4.90;2.08;;;;;;;8.15;100.00;102670.41;4998691;28;20498;-79
2023/12/15 09:26:31;;;;;;;8.43;2.45;;;;;;;8.18;100.00;102673.81;5015243;28;20044;-78
2023/12/15 09:28:56;;;;;;;10.52;2.67;;;;;;;8.21;100.00;102679.81;4999458;28;20468;-78
2023/12/15 09:31:23;;;;;;;9.52;3.03;;;;;;;8.27;100.00;102684.72;4998941;28;20538;-79
2023/12/15 09:33:49;;;;;;;10.48;3.55;;;;;;;8.35;100.00;102685.00;5014866;28;20048;-79
2023/12/15 09:36:15;;;;;;;7.47;3.22;;;;;;;8.45;100.00;102687.06;4998937;28;20104;-80
2023/12/15 09:38:41;;;;;;;15.02;4.88;;;;;;;8.50;100.00;102683.06;5014787;28;20108;-79
2023/12/15 09:41:07;;;;;;;13.90;5.03;;;;;;;8.64;100.00;102690.06;5015611;28;20034;-79
2023/12/15 09:44:42;;;;;;;16.70;6.82;;;;;;;8.70;100.00;102689.56;5031528;28;20079;-79
2023/12/15 09:47:30;;;;;;;16.80;6.63;;;;;;;8.74;100.00;102699.13;4978330;28;20133;-79
2023/12/15 09:50:02;;;;;;;18.35;6.43;;;;;;;8.74;100.00;102704.47;5017295;28;20130;-80
2023/12/15 09:52:32;;;;;;;15.85;6.30;;;;;;;8.74;100.00;102707.16;5001642;28;20120;-79
2023/12/15 09:54:59;;;;;;;19.40;8.77;;;;;;;8.74;100.00;102699.13;5002592;28;20044;-79
2023/12/15 09:57:26;;;;;;;17.08;6.72;;;;;;;8.77;100.00;102704.25;4986783;28;20109;-80
2023/12/15 09:59:52;;;;;;;9.82;5.10;;;;;;;8.79;100.00;102705.00;5017980;28;20397;-79
2023/12/15 10:02:18;;;;;;;4.40;2.10;;;;;;;8.83;100.00;102715.47;5001710;28;20187;-80
2023/12/15 10:04:45;;;;;;;10.38;2.88;;;;;;;8.86;100.00;102717.94;5019098;28;20091;-79
2023/12/15 10:07:12;;;;;;;7.50;2.50;;;;;;;8.90;100.00;102712.22;5035188;28;20400;-79
2023/12/15 10:09:41;;;;;;;7.45;2.10;;;;;;;8.93;100.00;102711.13;5002296;28;20042;-79
2023/12/15 10:12:10;;;;;;;10.00;2.05;;;;;;;9.01;100.00;102719.44;5018939;28;20064;-79
2023/12/15 10:14:37;;;;;;;5.90;1.73;;;;;;;9.06;100.00;102711.03;5018222;28;20033;-79
2023/12/15 10:17:13;;;;;;;5.43;2.15;;;;;;;9.11;100.00;102715.09;5018442;28;20053;-80
2023/12/15 10:19:38;;;;;;;5.60;1.88;;;;;;;9.19;100.00;102723.41;5018375;28;20056;-80
2023/12/15 10:22:05;;;;;;;7.50;2.60;;;;;;;9.25;100.00;102719.38;5002582;28;20034;-79
2023/12/15 10:24:38;;;;;;;5.43;2.33;;;;;;;9.33;100.00;102725.00;5004879;28;20038;-79
2023/12/15 10:27:07;;;;;;;8.13;2.67;;;;;;;9.43;100.00;102734.06;5018180;28;20052;-79
2023/12/15 10:29:33;;;;;;;6.85;1.80;;;;;;;9.52;100.00;102727.09;5018008;28;20479;-79
2023/12/15 10:31:59;;;;;;;6.03;1.40;;;;;;;9.61;100.00;102731.75;5018233;28;20033;-79
2023/12/15 10:34:26;;;;;;;5.88;1.70;;;;;;;9.77;100.00;102735.91;5018182;28;20495;-80
2023/12/15 10:36:52;;;;;;;5.63;1.83;;;;;;;9.90;100.00;102742.88;5018026;28;20502;-79
2023/12/15 10:39:18;;;;;;;4.18;1.38;;;;;;;10.12;100.00;102746.50;5017843;28;20168;-79
2023/12/15 10:41:44;;;;;;;6.72;1.30;;;;;;;10.30;100.00;102757.66;5034705;28;20392;-80
2023/12/15 10:44:14;;;;;;;8.27;1.60;;;;;;;10.41;100.00;102762.16;5018287;28;20383;-79
2023/12/15 10:46:42;;;;;;;4.43;1.50;;;;;;;10.37;100.00;102752.59;5001096;28;20040;-79
2023/12/15 10:49:09;;;;;;;5.30;1.67;;;;;;;10.22;100.00;102750.19;5017429;28;20052;-78
2023/12/15 10:51:38;;;;;;;7.45;2.05;;;;;;;10.22;100.00;102752.00;5034567;28;20022;-78
2023/12/15 10:54:14;;;;;;;4.05;2.22;;;;;;;10.27;100.00;102760.56;5017729;28;20040;-78
2023/12/15 10:56:39;;;;;;;3.83;1.75;;;;;;;10.22;100.00;102752.88;5001940;28;20029;-78
2023/12/15 10:59:15;;;;;;;10.15;1.60;;;;;;;10.18;100.00;102756.75;5000221;28;20496;-78
2023/12/15 11:01:42;;;;;;;6.78;2.80;;;;;;;10.15;100.00;102756.16;5031607;28;20049;-78
2023/12/15 11:04:27;;;;;;;4.65;1.80;;;;;;;10.12;100.00;102766.19;5017633;28;20132;-78
2023/12/15 11:06:59;;;;;;;7.78;1.50;;;;;;;10.11;100.00;102759.09;5018674;28;20038;-78
2023/12/15 11:09:33;;;;;;;3.05;1.50;;;;;;;10.15;100.00;102753.47;5001859;28;20033;-78
2023/12/15 11:12:23;;;;;;;4.30;1.25;;;;;;;10.14;100.00;102752.63;5001231;28;20063;-78
2023/12/15 11:15:06;;;;;;;5.97;1.85;;;;;;;10.10;100.00;102757.38;5017916;28;20503;-78
2023/12/15 11:17:43;;;;;;;5.38;2.17;;;;;;;10.16;100.00;102750.69;5018149;28;20050;-78
2023/12/15 11:20:31;;;;;;;8.43;3.40;;;;;;;10.26;100.00;102746.22;5027903;28;20033;-78
2023/12/15 11:22:57;;;;;;;5.75;3.28;;;;;;;10.45;100.00;102747.44;5015547;28;20037;-78
2023/12/15 11:25:33;;;;;;;6.38;2.88;;;;;;;10.54;100.00;102739.50;5015543;28;20041;-78